sensor_id;sensor_type;location;lat;lon;timestamp;P1;P2;P0
62591;PMS5003;48659;41.622;2.276;2023-07-29T00:00:03;13;12;
62591;PMS5003;48659;41.622;2.276;2023-07-29T00:02:33;13;13;
62591;PMS5003;48659;41.622;2.276;2023-07-29T00:05:00;11;10;
62591;PMS5003;48659;41.622;2.276;2023-07-29T00:07:28;13;13;
62591;PMS5003;48659;41.622;2.276;2023-07-29T00:09:56;11;11;
62591;PMS5003;48659;41.622;2.276;2023-07-29T00:12:24;13;10;
62591;PMS5003;48659;41.622;2.276;2023-07-29T00:14:51;10;10;
62591;PMS5003;48659;41.622;2.276;2023-07-29T00:17:19;14;12;
62591;PMS5003;48659;41.622;2.276;2023-07-29T00:19:47;17;12;
62591;PMS5003;48659;41.622;2.276;2023-07-29T00:22:14;12;12;
62591;PMS5003;48659;41.622;2.276;2023-07-29T00:24:42;14;13;
62591;PMS5003;48659;41.622;2.276;2023-07-29T00:27:09;12;12;
62591;PMS5003;48659;41.622;2.276;2023-07-29T00:29:37;12;12;
62591;PMS5003;48659;41.622;2.276;2023-07-29T00:32:07;11;11;
62591;PMS5003;48659;41.622;2.276;2023-07-29T00:34:35;11;10;
62591;PMS5003;48659;41.622;2.276;2023-07-29T00:37:08;10;10;
62591;PMS5003;48659;41.622;2.276;2023-07-29T00:39:36;10;10;
62591;PMS5003;48659;41.622;2.276;2023-07-29T00:42:08;11;10;
62591;PMS5003;48659;41.622;2.276;2023-07-29T00:44:36;15;12;
62591;PMS5003;48659;41.622;2.276;2023-07-29T00:47:08;13;13;
62591;PMS5003;48659;41.622;2.276;2023-07-29T00:49:37;12;12;
62591;PMS5003;48659;41.622;2.276;2023-07-29T00:52:11;12;12;
62591;PMS5003;48659;41.622;2.276;2023-07-29T00:54:39;12;12;
62591;PMS5003;48659;41.622;2.276;2023-07-29T00:57:08;14;12;
62591;PMS5003;48659;41.622;2.276;2023-07-29T00:59:36;18;17;
62591;PMS5003;48659;41.622;2.276;2023-07-29T01:02:08;17;16;
62591;PMS5003;48659;41.622;2.276;2023-07-29T01:04:37;13;12;
62591;PMS5003;48659;41.622;2.276;2023-07-29T01:07:07;12;12;
62591;PMS5003;48659;41.622;2.276;2023-07-29T01:09:43;13;13;
62591;PMS5003;48659;41.622;2.276;2023-07-29T01:12:20;10;10;
62591;PMS5003;48659;41.622;2.276;2023-07-29T01:14:53;9;9;
62591;PMS5003;48659;41.622;2.276;2023-07-29T01:17:29;12;11;
62591;PMS5003;48659;41.622;2.276;2023-07-29T01:20:13;15;13;
62591;PMS5003;48659;41.622;2.276;2023-07-29T01:22:42;10;10;
62591;PMS5003;48659;41.622;2.276;2023-07-29T01:25:09;10;10;
62591;PMS5003;48659;41.622;2.276;2023-07-29T01:27:38;10;10;
62591;PMS5003;48659;41.622;2.276;2023-07-29T01:30:05;10;10;
62591;PMS5003;48659;41.622;2.276;2023-07-29T01:32:36;10;10;
62591;PMS5003;48659;41.622;2.276;2023-07-29T01:35:11;10;10;
62591;PMS5003;48659;41.622;2.276;2023-07-29T01:37:47;10;10;
62591;PMS5003;48659;41.622;2.276;2023-07-29T01:40:18;12;11;
62591;PMS5003;48659;41.622;2.276;2023-07-29T01:42:47;11;11;
62591;PMS5003;48659;41.622;2.276;2023-07-29T01:45:15;11;10;
62591;PMS5003;48659;41.622;2.276;2023-07-29T01:47:43;9;9;
62591;PMS5003;48659;41.622;2.276;2023-07-29T01:50:12;9;9;
62591;PMS5003;48659;41.622;2.276;2023-07-29T01:52:40;15;12;
62591;PMS5003;48659;41.622;2.276;2023-07-29T01:55:08;11;10;
62591;PMS5003;48659;41.622;2.276;2023-07-29T01:57:35;10;10;
62591;PMS5003;48659;41.622;2.276;2023-07-29T02:00:16;10;9;
62591;PMS5003;48659;41.622;2.276;2023-07-29T02:02:44;10;10;
62591;PMS5003;48659;41.622;2.276;2023-07-29T02:05:12;11;9;
62591;PMS5003;48659;41.622;2.276;2023-07-29T02:07:40;9;9;
62591;PMS5003;48659;41.622;2.276;2023-07-29T02:10:11;13;12;
62591;PMS5003;48659;41.622;2.276;2023-07-29T02:12:38;11;11;
62591;PMS5003;48659;41.622;2.276;2023-07-29T02:15:07;15;13;
62591;PMS5003;48659;41.622;2.276;2023-07-29T02:17:35;15;14;
62591;PMS5003;48659;41.622;2.276;2023-07-29T02:20:03;9;9;
62591;PMS5003;48659;41.622;2.276;2023-07-29T02:22:31;12;11;
62591;PMS5003;48659;41.622;2.276;2023-07-29T02:24:59;10;8;
62591;PMS5003;48659;41.622;2.276;2023-07-29T02:27:27;14;14;
62591;PMS5003;48659;41.622;2.276;2023-07-29T02:29:55;13;11;
62591;PMS5003;48659;41.622;2.276;2023-07-29T02:32:22;15;12;
62591;PMS5003;48659;41.622;2.276;2023-07-29T02:34:50;13;10;
62591;PMS5003;48659;41.622;2.276;2023-07-29T02:37:18;12;11;
62591;PMS5003;48659;41.622;2.276;2023-07-29T02:39:46;13;12;
62591;PMS5003;48659;41.622;2.276;2023-07-29T02:42:18;11;11;
62591;PMS5003;48659;41.622;2.276;2023-07-29T02:44:46;9;9;
62591;PMS5003;48659;41.622;2.276;2023-07-29T02:47:14;10;10;
62591;PMS5003;48659;41.622;2.276;2023-07-29T02:49:42;15;12;
62591;PMS5003;48659;41.622;2.276;2023-07-29T02:52:09;12;12;
62591;PMS5003;48659;41.622;2.276;2023-07-29T02:54:37;17;11;
62591;PMS5003;48659;41.622;2.276;2023-07-29T02:57:08;12;12;
62591;PMS5003;48659;41.622;2.276;2023-07-29T02:59:36;11;10;
62591;PMS5003;48659;41.622;2.276;2023-07-29T03:02:07;12;11;
62591;PMS5003;48659;41.622;2.276;2023-07-29T03:04:34;11;11;
62591;PMS5003;48659;41.622;2.276;2023-07-29T03:07:08;14;12;
62591;PMS5003;48659;41.622;2.276;2023-07-29T03:09:36;11;10;
62591;PMS5003;48659;41.622;2.276;2023-07-29T03:12:04;10;10;
62591;PMS5003;48659;41.622;2.276;2023-07-29T03:14:32;11;11;
62591;PMS5003;48659;41.622;2.276;2023-07-29T03:17:08;10;9;
62591;PMS5003;48659;41.622;2.276;2023-07-29T03:19:36;11;11;
62591;PMS5003;48659;41.622;2.276;2023-07-29T03:22:04;10;10;
62591;PMS5003;48659;41.622;2.276;2023-07-29T03:24:31;10;10;
62591;PMS5003;48659;41.622;2.276;2023-07-29T03:27:06;10;9;
62591;PMS5003;48659;41.622;2.276;2023-07-29T03:29:34;11;10;
62591;PMS5003;48659;41.622;2.276;2023-07-29T03:32:02;12;10;
62591;PMS5003;48659;41.622;2.276;2023-07-29T03:34:30;11;11;
62591;PMS5003;48659;41.622;2.276;2023-07-29T03:36:57;13;11;
62591;PMS5003;48659;41.622;2.276;2023-07-29T03:39:25;7;7;
62591;PMS5003;48659;41.622;2.276;2023-07-29T03:41:53;9;7;
62591;PMS5003;48659;41.622;2.276;2023-07-29T03:44:21;8;8;
62591;PMS5003;48659;41.622;2.276;2023-07-29T03:46:48;15;12;
62591;PMS5003;48659;41.622;2.276;2023-07-29T03:49:16;9;9;
62591;PMS5003;48659;41.622;2.276;2023-07-29T03:51:43;10;10;
62591;PMS5003;48659;41.622;2.276;2023-07-29T03:54:11;8;8;
62591;PMS5003;48659;41.622;2.276;2023-07-29T03:56:39;10;10;
62591;PMS5003;48659;41.622;2.276;2023-07-29T03:59:06;10;10;
62591;PMS5003;48659;41.622;2.276;2023-07-29T04:01:34;10;10;
62591;PMS5003;48659;41.622;2.276;2023-07-29T04:04:02;11;11;
62591;PMS5003;48659;41.622;2.276;2023-07-29T04:06:31;11;11;
62591;PMS5003;48659;41.622;2.276;2023-07-29T04:08:59;11;11;
62591;PMS5003;48659;41.622;2.276;2023-07-29T04:11:27;11;11;
62591;PMS5003;48659;41.622;2.276;2023-07-29T04:13:54;11;9;
62591;PMS5003;48659;41.622;2.276;2023-07-29T04:16:22;13;11;
62591;PMS5003;48659;41.622;2.276;2023-07-29T04:18:50;10;10;
62591;PMS5003;48659;41.622;2.276;2023-07-29T04:21:17;10;10;
62591;PMS5003;48659;41.622;2.276;2023-07-29T04:23:45;14;11;
62591;PMS5003;48659;41.622;2.276;2023-07-29T04:26:12;10;10;
62591;PMS5003;48659;41.622;2.276;2023-07-29T04:28:40;11;11;
62591;PMS5003;48659;41.622;2.276;2023-07-29T04:31:08;13;13;
62591;PMS5003;48659;41.622;2.276;2023-07-29T04:33:35;12;12;
62591;PMS5003;48659;41.622;2.276;2023-07-29T04:36:03;11;10;
62591;PMS5003;48659;41.622;2.276;2023-07-29T04:38:31;13;11;
62591;PMS5003;48659;41.622;2.276;2023-07-29T04:40:59;11;11;
62591;PMS5003;48659;41.622;2.276;2023-07-29T04:43:27;9;9;
62591;PMS5003;48659;41.622;2.276;2023-07-29T04:45:55;13;12;
62591;PMS5003;48659;41.622;2.276;2023-07-29T04:48:22;10;10;
62591;PMS5003;48659;41.622;2.276;2023-07-29T04:50:49;11;11;
62591;PMS5003;48659;41.622;2.276;2023-07-29T04:53:17;13;12;
62591;PMS5003;48659;41.622;2.276;2023-07-29T04:55:45;12;11;
62591;PMS5003;48659;41.622;2.276;2023-07-29T04:58:13;11;10;
62591;PMS5003;48659;41.622;2.276;2023-07-29T05:00:41;16;13;
62591;PMS5003;48659;41.622;2.276;2023-07-29T05:03:09;14;11;
62591;PMS5003;48659;41.622;2.276;2023-07-29T05:05:37;12;12;
62591;PMS5003;48659;41.622;2.276;2023-07-29T05:08:12;11;11;
62591;PMS5003;48659;41.622;2.276;2023-07-29T05:10:40;11;11;
62591;PMS5003;48659;41.622;2.276;2023-07-29T05:13:09;12;10;
62591;PMS5003;48659;41.622;2.276;2023-07-29T05:15:36;12;11;
62591;PMS5003;48659;41.622;2.276;2023-07-29T05:18:04;11;9;
62591;PMS5003;48659;41.622;2.276;2023-07-29T05:20:32;10;7;
62591;PMS5003;48659;41.622;2.276;2023-07-29T05:23:08;10;10;
62591;PMS5003;48659;41.622;2.276;2023-07-29T05:25:36;14;13;
62591;PMS5003;48659;41.622;2.276;2023-07-29T05:28:04;13;11;
62591;PMS5003;48659;41.622;2.276;2023-07-29T05:30:32;11;11;
62591;PMS5003;48659;41.622;2.276;2023-07-29T05:33:09;8;7;
62591;PMS5003;48659;41.622;2.276;2023-07-29T05:35:37;10;9;
62591;PMS5003;48659;41.622;2.276;2023-07-29T05:38:07;10;9;
62591;PMS5003;48659;41.622;2.276;2023-07-29T05:40:35;10;10;
62591;PMS5003;48659;41.622;2.276;2023-07-29T05:43:02;12;12;
62591;PMS5003;48659;41.622;2.276;2023-07-29T05:45:30;11;11;
62591;PMS5003;48659;41.622;2.276;2023-07-29T05:47:58;12;11;
62591;PMS5003;48659;41.622;2.276;2023-07-29T05:50:26;13;10;
62591;PMS5003;48659;41.622;2.276;2023-07-29T05:52:53;16;14;
62591;PMS5003;48659;41.622;2.276;2023-07-29T05:55:21;14;10;
62591;PMS5003;48659;41.622;2.276;2023-07-29T05:57:48;13;11;
62591;PMS5003;48659;41.622;2.276;2023-07-29T06:00:16;11;9;
62591;PMS5003;48659;41.622;2.276;2023-07-29T06:02:44;11;11;
62591;PMS5003;48659;41.622;2.276;2023-07-29T06:05:11;11;11;
62591;PMS5003;48659;41.622;2.276;2023-07-29T06:07:39;10;10;
62591;PMS5003;48659;41.622;2.276;2023-07-29T06:10:06;9;8;
62591;PMS5003;48659;41.622;2.276;2023-07-29T06:12:35;11;9;
62591;PMS5003;48659;41.622;2.276;2023-07-29T06:15:07;11;9;
62591;PMS5003;48659;41.622;2.276;2023-07-29T06:17:35;9;9;
62591;PMS5003;48659;41.622;2.276;2023-07-29T06:20:11;10;10;
62591;PMS5003;48659;41.622;2.276;2023-07-29T06:22:40;13;13;
62591;PMS5003;48659;41.622;2.276;2023-07-29T06:25:08;12;12;
62591;PMS5003;48659;41.622;2.276;2023-07-29T06:27:36;16;12;
62591;PMS5003;48659;41.622;2.276;2023-07-29T06:30:11;11;10;
62591;PMS5003;48659;41.622;2.276;2023-07-29T06:32:39;12;12;
62591;PMS5003;48659;41.622;2.276;2023-07-29T06:35:08;12;9;
62591;PMS5003;48659;41.622;2.276;2023-07-29T06:37:36;12;12;
62591;PMS5003;48659;41.622;2.276;2023-07-29T06:40:04;13;13;
62591;PMS5003;48659;41.622;2.276;2023-07-29T06:42:32;12;12;
62591;PMS5003;48659;41.622;2.276;2023-07-29T06:44:59;16;14;
62591;PMS5003;48659;41.622;2.276;2023-07-29T06:47:27;13;13;
62591;PMS5003;48659;41.622;2.276;2023-07-29T06:49:55;12;12;
62591;PMS5003;48659;41.622;2.276;2023-07-29T06:52:22;14;11;
62591;PMS5003;48659;41.622;2.276;2023-07-29T06:54:50;15;15;
62591;PMS5003;48659;41.622;2.276;2023-07-29T06:57:18;12;11;
62591;PMS5003;48659;41.622;2.276;2023-07-29T06:59:45;11;9;
62591;PMS5003;48659;41.622;2.276;2023-07-29T07:02:13;12;11;
62591;PMS5003;48659;41.622;2.276;2023-07-29T07:04:40;12;9;
62591;PMS5003;48659;41.622;2.276;2023-07-29T07:07:08;11;8;
62591;PMS5003;48659;41.622;2.276;2023-07-29T07:09:35;12;12;
62591;PMS5003;48659;41.622;2.276;2023-07-29T07:12:08;12;10;
62591;PMS5003;48659;41.622;2.276;2023-07-29T07:14:36;12;11;
62591;PMS5003;48659;41.622;2.276;2023-07-29T07:17:04;15;12;
62591;PMS5003;48659;41.622;2.276;2023-07-29T07:19:32;12;12;
62591;PMS5003;48659;41.622;2.276;2023-07-29T07:22:08;14;13;
62591;PMS5003;48659;41.622;2.276;2023-07-29T07:24:36;10;9;
62591;PMS5003;48659;41.622;2.276;2023-07-29T07:27:04;13;13;
62591;PMS5003;48659;41.622;2.276;2023-07-29T07:29:32;11;11;
62591;PMS5003;48659;41.622;2.276;2023-07-29T07:32:07;11;10;
62591;PMS5003;48659;41.622;2.276;2023-07-29T07:34:35;10;10;
62591;PMS5003;48659;41.622;2.276;2023-07-29T07:37:02;15;14;
62591;PMS5003;48659;41.622;2.276;2023-07-29T07:39:29;12;9;
62591;PMS5003;48659;41.622;2.276;2023-07-29T07:41:58;11;10;
62591;PMS5003;48659;41.622;2.276;2023-07-29T07:44:40;14;12;
62591;PMS5003;48659;41.622;2.276;2023-07-29T07:47:07;11;11;
62591;PMS5003;48659;41.622;2.276;2023-07-29T07:49:34;15;14;
62591;PMS5003;48659;41.622;2.276;2023-07-29T07:52:02;16;16;
62591;PMS5003;48659;41.622;2.276;2023-07-29T07:54:31;11;11;
62591;PMS5003;48659;41.622;2.276;2023-07-29T07:56:59;10;8;
62591;PMS5003;48659;41.622;2.276;2023-07-29T07:59:26;11;11;
62591;PMS5003;48659;41.622;2.276;2023-07-29T08:01:53;12;12;
62591;PMS5003;48659;41.622;2.276;2023-07-29T08:04:21;11;10;
62591;PMS5003;48659;41.622;2.276;2023-07-29T08:06:49;15;12;
62591;PMS5003;48659;41.622;2.276;2023-07-29T08:09:16;13;13;
62591;PMS5003;48659;41.622;2.276;2023-07-29T08:11:44;12;11;
62591;PMS5003;48659;41.622;2.276;2023-07-29T08:14:11;10;10;
62591;PMS5003;48659;41.622;2.276;2023-07-29T08:16:39;13;10;
62591;PMS5003;48659;41.622;2.276;2023-07-29T08:19:06;13;13;
62591;PMS5003;48659;41.622;2.276;2023-07-29T08:21:34;8;8;
62591;PMS5003;48659;41.622;2.276;2023-07-29T08:24:02;9;9;
62591;PMS5003;48659;41.622;2.276;2023-07-29T08:26:30;15;13;
62591;PMS5003;48659;41.622;2.276;2023-07-29T08:28:57;14;13;
62591;PMS5003;48659;41.622;2.276;2023-07-29T08:31:25;7;7;
62591;PMS5003;48659;41.622;2.276;2023-07-29T08:33:53;9;9;
62591;PMS5003;48659;41.622;2.276;2023-07-29T08:36:20;10;10;
62591;PMS5003;48659;41.622;2.276;2023-07-29T08:38:48;8;8;
62591;PMS5003;48659;41.622;2.276;2023-07-29T08:41:16;13;13;
62591;PMS5003;48659;41.622;2.276;2023-07-29T08:43:52;7;7;
62591;PMS5003;48659;41.622;2.276;2023-07-29T08:46:27;8;8;
62591;PMS5003;48659;41.622;2.276;2023-07-29T08:48:55;6;6;
62591;PMS5003;48659;41.622;2.276;2023-07-29T08:51:24;9;8;
62591;PMS5003;48659;41.622;2.276;2023-07-29T08:53:53;6;6;
62591;PMS5003;48659;41.622;2.276;2023-07-29T08:56:21;8;7;
62591;PMS5003;48659;41.622;2.276;2023-07-29T08:58:49;9;8;
62591;PMS5003;48659;41.622;2.276;2023-07-29T09:01:17;9;7;
62591;PMS5003;48659;41.622;2.276;2023-07-29T09:03:45;8;7;
62591;PMS5003;48659;41.622;2.276;2023-07-29T09:06:13;11;10;
62591;PMS5003;48659;41.622;2.276;2023-07-29T09:08:41;7;7;
62591;PMS5003;48659;41.622;2.276;2023-07-29T09:11:10;8;8;
62591;PMS5003;48659;41.622;2.276;2023-07-29T09:13:40;8;8;
62591;PMS5003;48659;41.622;2.276;2023-07-29T09:16:09;8;8;
62591;PMS5003;48659;41.622;2.276;2023-07-29T09:18:37;11;9;
62591;PMS5003;48659;41.622;2.276;2023-07-29T09:21:05;9;9;
62591;PMS5003;48659;41.622;2.276;2023-07-29T09:23:38;11;9;
62591;PMS5003;48659;41.622;2.276;2023-07-29T09:26:07;9;9;
62591;PMS5003;48659;41.622;2.276;2023-07-29T09:28:37;7;7;
62591;PMS5003;48659;41.622;2.276;2023-07-29T09:31:13;8;8;
62591;PMS5003;48659;41.622;2.276;2023-07-29T09:33:46;7;7;
62591;PMS5003;48659;41.622;2.276;2023-07-29T09:36:14;9;9;
62591;PMS5003;48659;41.622;2.276;2023-07-29T09:38:42;8;8;
62591;PMS5003;48659;41.622;2.276;2023-07-29T09:41:11;10;9;
62591;PMS5003;48659;41.622;2.276;2023-07-29T09:43:41;8;8;
62591;PMS5003;48659;41.622;2.276;2023-07-29T09:46:09;12;11;
62591;PMS5003;48659;41.622;2.276;2023-07-29T09:48:38;10;8;
62591;PMS5003;48659;41.622;2.276;2023-07-29T09:51:10;11;8;
62591;PMS5003;48659;41.622;2.276;2023-07-29T09:53:39;12;12;
62591;PMS5003;48659;41.622;2.276;2023-07-29T09:56:08;9;9;
62591;PMS5003;48659;41.622;2.276;2023-07-29T09:58:35;10;9;
62591;PMS5003;48659;41.622;2.276;2023-07-29T10:01:03;13;12;
62591;PMS5003;48659;41.622;2.276;2023-07-29T10:03:32;10;8;
62591;PMS5003;48659;41.622;2.276;2023-07-29T10:06:07;10;9;
62591;PMS5003;48659;41.622;2.276;2023-07-29T10:08:35;9;9;
62591;PMS5003;48659;41.622;2.276;2023-07-29T10:11:09;7;7;
62591;PMS5003;48659;41.622;2.276;2023-07-29T10:13:37;11;11;
62591;PMS5003;48659;41.622;2.276;2023-07-29T10:16:06;11;10;
62591;PMS5003;48659;41.622;2.276;2023-07-29T10:18:34;9;9;
62591;PMS5003;48659;41.622;2.276;2023-07-29T10:21:12;23;15;
62591;PMS5003;48659;41.622;2.276;2023-07-29T10:23:42;12;11;
62591;PMS5003;48659;41.622;2.276;2023-07-29T10:26:13;10;9;
62591;PMS5003;48659;41.622;2.276;2023-07-29T10:28:47;30;19;
62591;PMS5003;48659;41.622;2.276;2023-07-29T10:31:19;9;9;
62591;PMS5003;48659;41.622;2.276;2023-07-29T10:33:49;9;8;
62591;PMS5003;48659;41.622;2.276;2023-07-29T10:36:17;10;10;
62591;PMS5003;48659;41.622;2.276;2023-07-29T10:38:46;9;9;
62591;PMS5003;48659;41.622;2.276;2023-07-29T10:41:14;8;8;
62591;PMS5003;48659;41.622;2.276;2023-07-29T10:43:41;30;25;
62591;PMS5003;48659;41.622;2.276;2023-07-29T10:46:17;9;9;
62591;PMS5003;48659;41.622;2.276;2023-07-29T10:48:52;9;9;
62591;PMS5003;48659;41.622;2.276;2023-07-29T10:51:28;8;8;
62591;PMS5003;48659;41.622;2.276;2023-07-29T10:53:56;11;10;
62591;PMS5003;48659;41.622;2.276;2023-07-29T10:56:26;12;10;
62591;PMS5003;48659;41.622;2.276;2023-07-29T10:58:55;7;7;
62591;PMS5003;48659;41.622;2.276;2023-07-29T11:01:27;11;11;
62591;PMS5003;48659;41.622;2.276;2023-07-29T11:04:28;9;9;
62591;PMS5003;48659;41.622;2.276;2023-07-29T11:07:28;7;7;
62591;PMS5003;48659;41.622;2.276;2023-07-29T11:10:12;8;8;
62591;PMS5003;48659;41.622;2.276;2023-07-29T11:12:43;10;8;
62591;PMS5003;48659;41.622;2.276;2023-07-29T11:15:12;7;7;
62591;PMS5003;48659;41.622;2.276;2023-07-29T11:17:41;7;7;
62591;PMS5003;48659;41.622;2.276;2023-07-29T11:20:17;7;6;
62591;PMS5003;48659;41.622;2.276;2023-07-29T11:22:46;8;8;
62591;PMS5003;48659;41.622;2.276;2023-07-29T11:25:14;7;7;
62591;PMS5003;48659;41.622;2.276;2023-07-29T11:27:44;5;5;
62591;PMS5003;48659;41.622;2.276;2023-07-29T11:30:13;8;6;
62591;PMS5003;48659;41.622;2.276;2023-07-29T11:32:42;12;9;
62591;PMS5003;48659;41.622;2.276;2023-07-29T11:35:11;6;6;
62591;PMS5003;48659;41.622;2.276;2023-07-29T11:37:39;7;7;
62591;PMS5003;48659;41.622;2.276;2023-07-29T11:40:08;10;8;
62591;PMS5003;48659;41.622;2.276;2023-07-29T11:42:36;9;8;
62591;PMS5003;48659;41.622;2.276;2023-07-29T11:45:04;5;5;
62591;PMS5003;48659;41.622;2.276;2023-07-29T11:47:33;6;6;
62591;PMS5003;48659;41.622;2.276;2023-07-29T11:50:07;7;7;
62591;PMS5003;48659;41.622;2.276;2023-07-29T11:52:37;5;5;
62591;PMS5003;48659;41.622;2.276;2023-07-29T11:55:18;8;7;
62591;PMS5003;48659;41.622;2.276;2023-07-29T11:57:46;7;5;
62591;PMS5003;48659;41.622;2.276;2023-07-29T12:00:18;5;5;
62591;PMS5003;48659;41.622;2.276;2023-07-29T12:02:47;6;5;
62591;PMS5003;48659;41.622;2.276;2023-07-29T12:05:16;8;8;
62591;PMS5003;48659;41.622;2.276;2023-07-29T12:07:46;9;6;
62591;PMS5003;48659;41.622;2.276;2023-07-29T12:10:14;6;6;
62591;PMS5003;48659;41.622;2.276;2023-07-29T12:12:45;5;5;
62591;PMS5003;48659;41.622;2.276;2023-07-29T12:15:13;7;7;
62591;PMS5003;48659;41.622;2.276;2023-07-29T12:17:52;6;6;
62591;PMS5003;48659;41.622;2.276;2023-07-29T12:20:21;5;5;
62591;PMS5003;48659;41.622;2.276;2023-07-29T12:22:52;6;6;
62591;PMS5003;48659;41.622;2.276;2023-07-29T12:25:20;5;5;
62591;PMS5003;48659;41.622;2.276;2023-07-29T12:27:49;7;7;
62591;PMS5003;48659;41.622;2.276;2023-07-29T12:30:20;7;5;
62591;PMS5003;48659;41.622;2.276;2023-07-29T12:32:47;6;5;
62591;PMS5003;48659;41.622;2.276;2023-07-29T12:35:15;7;7;
62591;PMS5003;48659;41.622;2.276;2023-07-29T12:37:43;12;10;
62591;PMS5003;48659;41.622;2.276;2023-07-29T12:40:21;8;5;
62591;PMS5003;48659;41.622;2.276;2023-07-29T12:42:49;8;6;
62591;PMS5003;48659;41.622;2.276;2023-07-29T12:45:17;11;11;
62591;PMS5003;48659;41.622;2.276;2023-07-29T12:47:45;6;6;
62591;PMS5003;48659;41.622;2.276;2023-07-29T12:50:18;6;6;
62591;PMS5003;48659;41.622;2.276;2023-07-29T12:52:45;6;6;
62591;PMS5003;48659;41.622;2.276;2023-07-29T12:55:13;6;6;
62591;PMS5003;48659;41.622;2.276;2023-07-29T12:57:41;5;5;
62591;PMS5003;48659;41.622;2.276;2023-07-29T13:00:09;7;7;
62591;PMS5003;48659;41.622;2.276;2023-07-29T13:02:38;7;5;
62591;PMS5003;48659;41.622;2.276;2023-07-29T13:05:09;6;6;
62591;PMS5003;48659;41.622;2.276;2023-07-29T13:07:37;7;6;
62591;PMS5003;48659;41.622;2.276;2023-07-29T13:10:04;6;5;
62591;PMS5003;48659;41.622;2.276;2023-07-29T13:12:33;6;6;
62591;PMS5003;48659;41.622;2.276;2023-07-29T13:15:07;6;6;
62591;PMS5003;48659;41.622;2.276;2023-07-29T13:17:35;7;7;
62591;PMS5003;48659;41.622;2.276;2023-07-29T13:20:04;8;6;
62591;PMS5003;48659;41.622;2.276;2023-07-29T13:22:32;8;5;
62591;PMS5003;48659;41.622;2.276;2023-07-29T13:25:01;5;5;
62591;PMS5003;48659;41.622;2.276;2023-07-29T13:27:28;9;9;
62591;PMS5003;48659;41.622;2.276;2023-07-29T13:29:56;7;7;
62591;PMS5003;48659;41.622;2.276;2023-07-29T13:32:24;8;6;
62591;PMS5003;48659;41.622;2.276;2023-07-29T13:34:51;7;7;
62591;PMS5003;48659;41.622;2.276;2023-07-29T13:37:19;5;3;
62591;PMS5003;48659;41.622;2.276;2023-07-29T13:39:47;5;5;
62591;PMS5003;48659;41.622;2.276;2023-07-29T13:42:14;7;5;
62591;PMS5003;48659;41.622;2.276;2023-07-29T13:44:42;8;6;
62591;PMS5003;48659;41.622;2.276;2023-07-29T13:47:10;9;6;
62591;PMS5003;48659;41.622;2.276;2023-07-29T13:49:37;9;8;
62591;PMS5003;48659;41.622;2.276;2023-07-29T13:52:05;6;4;
62591;PMS5003;48659;41.622;2.276;2023-07-29T13:54:32;9;6;
62591;PMS5003;48659;41.622;2.276;2023-07-29T13:57:00;6;6;
62591;PMS5003;48659;41.622;2.276;2023-07-29T13:59:28;7;6;
62591;PMS5003;48659;41.622;2.276;2023-07-29T14:01:55;5;5;
62591;PMS5003;48659;41.622;2.276;2023-07-29T14:04:23;7;6;
62591;PMS5003;48659;41.622;2.276;2023-07-29T14:06:50;5;4;
62591;PMS5003;48659;41.622;2.276;2023-07-29T14:09:18;5;5;
62591;PMS5003;48659;41.622;2.276;2023-07-29T14:11:45;8;5;
62591;PMS5003;48659;41.622;2.276;2023-07-29T14:14:13;5;5;
62591;PMS5003;48659;41.622;2.276;2023-07-29T14:16:41;7;6;
62591;PMS5003;48659;41.622;2.276;2023-07-29T14:19:09;5;5;
62591;PMS5003;48659;41.622;2.276;2023-07-29T14:21:36;6;6;
62591;PMS5003;48659;41.622;2.276;2023-07-29T14:24:05;8;7;
62591;PMS5003;48659;41.622;2.276;2023-07-29T14:26:32;7;6;
62591;PMS5003;48659;41.622;2.276;2023-07-29T14:29:08;6;6;
62591;PMS5003;48659;41.622;2.276;2023-07-29T14:31:35;6;6;
62591;PMS5003;48659;41.622;2.276;2023-07-29T14:34:03;7;4;
62591;PMS5003;48659;41.622;2.276;2023-07-29T14:36:30;6;6;
62591;PMS5003;48659;41.622;2.276;2023-07-29T14:38:58;5;5;
62591;PMS5003;48659;41.622;2.276;2023-07-29T14:41:35;5;5;
62591;PMS5003;48659;41.622;2.276;2023-07-29T14:44:03;7;6;
62591;PMS5003;48659;41.622;2.276;2023-07-29T14:46:30;5;5;
62591;PMS5003;48659;41.622;2.276;2023-07-29T14:48:58;11;7;
62591;PMS5003;48659;41.622;2.276;2023-07-29T14:51:25;6;6;
62591;PMS5003;48659;41.622;2.276;2023-07-29T14:53:53;5;5;
62591;PMS5003;48659;41.622;2.276;2023-07-29T14:56:20;5;5;
62591;PMS5003;48659;41.622;2.276;2023-07-29T14:58:48;7;7;
62591;PMS5003;48659;41.622;2.276;2023-07-29T15:01:16;7;7;
62591;PMS5003;48659;41.622;2.276;2023-07-29T15:03:44;8;7;
62591;PMS5003;48659;41.622;2.276;2023-07-29T15:06:11;5;4;
62591;PMS5003;48659;41.622;2.276;2023-07-29T15:08:39;5;5;
62591;PMS5003;48659;41.622;2.276;2023-07-29T15:11:06;5;5;
62591;PMS5003;48659;41.622;2.276;2023-07-29T15:13:34;6;4;
62591;PMS5003;48659;41.622;2.276;2023-07-29T15:16:01;6;6;
62591;PMS5003;48659;41.622;2.276;2023-07-29T15:18:30;6;6;
62591;PMS5003;48659;41.622;2.276;2023-07-29T15:20:57;5;5;
62591;PMS5003;48659;41.622;2.276;2023-07-29T15:23:25;7;7;
62591;PMS5003;48659;41.622;2.276;2023-07-29T15:25:52;6;6;
62591;PMS5003;48659;41.622;2.276;2023-07-29T15:28:20;6;6;
62591;PMS5003;48659;41.622;2.276;2023-07-29T15:30:48;5;5;
62591;PMS5003;48659;41.622;2.276;2023-07-29T15:33:16;9;7;
62591;PMS5003;48659;41.622;2.276;2023-07-29T15:35:43;7;7;
62591;PMS5003;48659;41.622;2.276;2023-07-29T15:38:11;5;5;
62591;PMS5003;48659;41.622;2.276;2023-07-29T15:40:38;5;5;
62591;PMS5003;48659;41.622;2.276;2023-07-29T15:43:08;5;5;
62591;PMS5003;48659;41.622;2.276;2023-07-29T15:45:35;9;7;
62591;PMS5003;48659;41.622;2.276;2023-07-29T15:48:03;9;7;
62591;PMS5003;48659;41.622;2.276;2023-07-29T15:50:31;5;5;
62591;PMS5003;48659;41.622;2.276;2023-07-29T15:52:58;5;4;
62591;PMS5003;48659;41.622;2.276;2023-07-29T15:55:26;4;4;
62591;PMS5003;48659;41.622;2.276;2023-07-29T15:57:53;10;10;
62591;PMS5003;48659;41.622;2.276;2023-07-29T16:00:21;4;4;
62591;PMS5003;48659;41.622;2.276;2023-07-29T16:02:49;7;7;
62591;PMS5003;48659;41.622;2.276;2023-07-29T16:05:16;6;6;
62591;PMS5003;48659;41.622;2.276;2023-07-29T16:07:44;5;5;
62591;PMS5003;48659;41.622;2.276;2023-07-29T16:10:11;5;5;
62591;PMS5003;48659;41.622;2.276;2023-07-29T16:12:40;7;7;
62591;PMS5003;48659;41.622;2.276;2023-07-29T16:15:07;6;6;
62591;PMS5003;48659;41.622;2.276;2023-07-29T16:17:35;5;5;
62591;PMS5003;48659;41.622;2.276;2023-07-29T16:20:17;5;5;
62591;PMS5003;48659;41.622;2.276;2023-07-29T16:22:45;5;5;
62591;PMS5003;48659;41.622;2.276;2023-07-29T16:25:12;9;8;
62591;PMS5003;48659;41.622;2.276;2023-07-29T16:27:40;5;5;
62591;PMS5003;48659;41.622;2.276;2023-07-29T16:30:07;5;5;
62591;PMS5003;48659;41.622;2.276;2023-07-29T16:32:35;7;4;
62591;PMS5003;48659;41.622;2.276;2023-07-29T16:35:03;4;4;
62591;PMS5003;48659;41.622;2.276;2023-07-29T16:37:31;8;5;
62591;PMS5003;48659;41.622;2.276;2023-07-29T16:40:17;6;5;
62591;PMS5003;48659;41.622;2.276;2023-07-29T16:42:44;6;5;
62591;PMS5003;48659;41.622;2.276;2023-07-29T16:45:11;6;6;